Terminal Aerodrome Forecast
Issued by NWS

Home | Current Version | Previous Version | Text Only | Print | Product List | Glossary Off
Versions: 1 2 3 4 5 6 7 8 9 10 11 12 13 14 15 16 17

000
FTUS45 KGGW 210520
TAFOLF
TAF
KOLF 210520Z 2106/2206 22004KT P6SM SCT080
     FM210900 25006KT P6SM SCT120
     FM211900 26008KT P6SM SCT025 BKN030
     FM220300 02004KT P6SM VCSH BKN020=

USA.gov is the U.S. government's official web portal to all federal, state and local government web resources and services.